Terminal Aerodrome Forecast
Issued by NWS

Home | Current Version | Previous Version | Text Only | Print | Product List | Glossary On
Versions: 1 2 3 4 5 6 7 8 9 10 11 12 13 14 15 16 17 18 19 20 21 22 23 24
000
FTUS43 KGRB 161318 AAA
TAFRHI
TAF AMD
KRHI 161318Z 1613/1712 14007KT 5SM BR BKN002
      TEMPO 1613/1614 P6SM NSW SCT005 BKN120
     FM161400 13004KT P6SM FEW015 BKN120
     FM161600 12008KT P6SM BKN080 BKN200
     FM170100 11008KT P6SM VCSH SCT015 BKN030
     FM170500 12008KT 5SM SHRA VCTS BKN010CB
     FM170800 11007KT 1 1/2SM SHRA BR VCTS OVC003CB=

USA.gov is the U.S. government's official web portal to all federal, state and local government web resources and services.